createdAt,value
2019-05-03T00:00:34.947Z,100402.83
2019-05-03T00:03:07.534Z,100401.86
2019-05-03T00:05:41.803Z,100395.70
2019-05-03T00:08:12.649Z,100399.95
2019-05-03T00:10:42.690Z,100402.53
2019-05-03T00:13:12.712Z,100398.65
2019-05-03T00:15:52.078Z,100398.91
2019-05-03T00:18:22.158Z,100398.77
2019-05-03T00:20:52.685Z,100405.53
2019-05-03T00:23:22.961Z,100406.37
2019-05-03T00:25:52.797Z,100400.11
2019-05-03T00:28:22.466Z,100401.14
2019-05-03T00:30:52.139Z,100400.97
2019-05-03T00:33:23.444Z,100405.84
2019-05-03T00:36:12.725Z,100410.22
2019-05-03T00:38:42.446Z,100405.83
2019-05-03T00:41:13.551Z,100408.88
2019-05-03T00:43:43.353Z,100410.23
2019-05-03T00:46:13.193Z,100404.84
2019-05-03T00:48:43.092Z,100412.09
2019-05-03T00:51:13.123Z,100401.62
2019-05-03T00:53:44.275Z,100402.58
2019-05-03T00:56:13.893Z,100403.09
2019-05-03T00:58:52.804Z,100402.39
2019-05-03T01:01:22.583Z,100406.39
2019-05-03T01:03:52.820Z,100409.69
2019-05-03T01:06:23.012Z,100403.73
2019-05-03T01:08:52.745Z,100406.09
2019-05-03T01:11:22.606Z,100408.08
2019-05-03T01:13:53.223Z,100413.63
2019-05-03T01:16:24.495Z,100415.11
2019-05-03T01:18:54.122Z,100408.32
2019-05-03T01:21:23.767Z,100406.03
2019-05-03T01:23:53.422Z,100410.06
2019-05-03T01:26:23.244Z,100409.06
2019-05-03T01:28:52.966Z,100411.74
2019-05-03T01:31:23.008Z,100412.59
2019-05-03T01:33:53.231Z,100408.46
2019-05-03T01:36:23.816Z,100411.90
2019-05-03T01:38:53.446Z,100417.34
2019-05-03T01:41:23.454Z,100421.89
2019-05-03T01:43:53.209Z,100420.31
2019-05-03T01:46:23.139Z,100417.79
2019-05-03T01:48:54.545Z,100424.25
2019-05-03T01:51:26.032Z,100424.95
2019-05-03T01:53:55.705Z,100424.34
2019-05-03T01:56:26.142Z,100424.18
2019-05-03T01:58:55.822Z,100418.23
2019-05-03T02:01:39.091Z,100426.00
2019-05-03T02:04:19.208Z,100427.72
2019-05-03T02:06:48.951Z,100425.69
2019-05-03T02:09:18.633Z,100430.60
2019-05-03T02:11:48.946Z,100434.30
2019-05-03T02:14:18.497Z,100440.11
2019-05-03T02:16:48.115Z,100439.32
2019-05-03T02:19:17.909Z,100438.29
2019-05-03T02:21:47.559Z,100437.84
2019-05-03T02:24:17.104Z,100437.66
2019-05-03T02:26:46.777Z,100441.13
2019-05-03T02:29:16.509Z,100434.58
2019-05-03T02:31:46.069Z,100438.84
2019-05-03T02:34:16.484Z,100436.77
2019-05-03T02:36:46.284Z,100441.44
2019-05-03T02:39:17.459Z,100441.75
2019-05-03T02:41:51.429Z,100439.70
2019-05-03T02:44:21.291Z,100447.33
2019-05-03T02:46:56.287Z,100445.45
2019-05-03T02:49:30.653Z,100447.83
2019-05-03T02:52:02.263Z,100443.39
2019-05-03T02:54:31.843Z,100445.47
2019-05-03T02:57:01.541Z,100446.66
2019-05-03T02:59:31.253Z,100449.12
2019-05-03T03:02:01.230Z,100449.08
2019-05-03T03:04:31.083Z,100454.47
2019-05-03T03:07:01.625Z,100453.52
2019-05-03T03:09:31.492Z,100462.84
2019-05-03T03:12:02.185Z,100458.38
2019-05-03T03:14:36.254Z,100460.28
2019-05-03T03:17:07.715Z,100459.78
2019-05-03T03:19:38.604Z,100456.59
2019-05-03T03:22:11.546Z,100454.70
2019-05-03T03:24:45.812Z,100456.80
2019-05-03T03:27:25.528Z,100458.30
2019-05-03T03:29:58.904Z,100460.45
2019-05-03T03:32:38.375Z,100467.77
2019-05-03T03:35:20.828Z,100470.87
2019-05-03T03:37:48.807Z,100463.29
2019-05-03T03:40:18.973Z,100464.23
2019-05-03T03:42:51.528Z,100476.80
2019-05-03T03:45:21.226Z,100477.55
2019-05-03T03:47:56.203Z,100478.59
2019-05-03T03:50:28.943Z,100487.13
2019-05-03T03:53:01.058Z,100485.68
2019-05-03T03:55:32.861Z,100494.61
2019-05-03T03:58:06.197Z,100492.64
2019-05-03T04:00:36.273Z,100491.34
2019-05-03T04:03:06.149Z,100508.57
2019-05-03T04:05:37.512Z,100501.13
2019-05-03T04:08:07.243Z,100498.30
2019-05-03T04:10:37.119Z,100500.08
2019-05-03T04:13:09.486Z,100510.08
2019-05-03T04:15:45.268Z,100519.98
2019-05-03T04:18:22.363Z,100515.30
2019-05-03T04:20:52.142Z,100521.24
2019-05-03T04:23:21.773Z,100527.21
2019-05-03T04:25:52.115Z,100531.97
2019-05-03T04:28:21.985Z,100536.06
2019-05-03T04:30:51.527Z,100534.38
2019-05-03T04:33:21.222Z,100540.05
2019-05-03T04:35:50.783Z,100540.49
2019-05-03T04:38:20.447Z,100542.55
2019-05-03T04:40:50.154Z,100545.29
2019-05-03T04:43:19.839Z,100543.00
2019-05-03T04:46:06.665Z,100545.40
2019-05-03T04:48:35.746Z,100552.98
2019-05-03T04:51:06.561Z,100547.59
2019-05-03T04:53:37.800Z,100553.69
2019-05-03T04:56:07.412Z,100556.88
2019-05-03T04:58:37.030Z,100565.95
2019-05-03T05:01:07.670Z,100563.65
2019-05-03T05:03:37.242Z,100561.11
2019-05-03T05:06:07.012Z,100562.69
2019-05-03T05:08:36.630Z,100568.66
2019-05-03T05:11:10.080Z,100561.08
2019-05-03T05:13:37.678Z,100570.55
2019-05-03T05:16:07.472Z,100569.00
2019-05-03T05:18:38.831Z,100574.20
2019-05-03T05:21:15.949Z,100581.14
2019-05-03T05:23:59.023Z,100573.95
2019-05-03T05:26:30.540Z,100580.92
2019-05-03T05:29:01.913Z,100589.48
2019-05-03T05:31:31.619Z,100583.91
2019-05-03T05:34:01.340Z,100576.98
2019-05-03T05:36:34.745Z,100583.42
2019-05-03T05:39:06.905Z,100587.89
2019-05-03T05:41:36.559Z,100587.80
2019-05-03T05:44:06.233Z,100584.25
2019-05-03T05:46:39.617Z,100595.36
2019-05-03T05:49:10.864Z,100590.05
2019-05-03T05:51:40.915Z,100595.20
2019-05-03T05:54:11.794Z,100598.45
2019-05-03T05:56:44.493Z,100595.50
2019-05-03T05:59:19.007Z,100598.97
2019-05-03T06:01:50.288Z,100598.16
2019-05-03T06:04:19.966Z,100598.79
2019-05-03T06:06:51.321Z,100603.72
2019-05-03T06:09:31.070Z,100596.56
2019-05-03T06:12:04.439Z,100602.66
2019-05-03T06:14:35.942Z,100597.44
2019-05-03T06:17:24.527Z,100610.08
2019-05-03T06:19:56.111Z,100606.21
2019-05-03T06:22:34.560Z,100610.29
2019-05-03T06:25:08.105Z,100604.55
2019-05-03T06:27:40.769Z,100609.64
2019-05-03T06:30:16.217Z,100611.67
2019-05-03T06:32:45.784Z,100616.52
2019-05-03T06:35:15.491Z,100617.25
2019-05-03T06:37:46.387Z,100616.73
2019-05-03T06:40:16.176Z,100614.38
2019-05-03T06:42:54.529Z,100618.95
2019-05-03T06:45:18.815Z,100613.69
2019-05-03T06:47:50.124Z,100606.59
2019-05-03T06:50:25.216Z,100607.95
2019-05-03T06:52:51.185Z,100616.41
2019-05-03T06:55:20.821Z,100611.99
2019-05-03T06:57:51.690Z,100614.78
2019-05-03T07:00:29.481Z,100620.81
2019-05-03T07:03:00.687Z,100618.89
2019-05-03T07:05:32.758Z,100620.05
2019-05-03T07:08:19.683Z,100617.54
2019-05-03T07:10:51.112Z,100626.78
2019-05-03T07:13:20.775Z,100625.67
2019-05-03T07:15:50.837Z,100618.05
2019-05-03T07:18:20.356Z,100625.34
2019-05-03T07:20:54.366Z,100619.83
2019-05-03T07:23:24.474Z,100621.89
2019-05-03T07:25:55.159Z,100618.66
2019-05-03T07:28:25.587Z,100626.80
2019-05-03T07:30:56.474Z,100614.09
2019-05-03T07:33:30.193Z,100609.61
2019-05-03T07:35:59.996Z,100611.48
2019-05-03T07:38:29.550Z,100613.74
2019-05-03T07:40:59.200Z,100605.12
2019-05-03T07:43:28.745Z,100610.44
2019-05-03T07:46:01.259Z,100613.39
2019-05-03T07:48:31.297Z,100599.24
2019-05-03T07:51:00.807Z,100605.08
2019-05-03T07:53:30.406Z,100607.08
2019-05-03T07:56:01.571Z,100598.39
2019-05-03T07:58:38.723Z,100603.92
2019-05-03T08:01:18.788Z,100594.22
2019-05-03T08:03:48.442Z,100598.11
2019-05-03T08:06:18.429Z,100594.68
2019-05-03T08:08:48.025Z,100600.80
2019-05-03T08:11:17.703Z,100602.22
2019-05-03T08:13:47.337Z,100594.11
2019-05-03T08:16:16.921Z,100603.06
2019-05-03T08:18:46.534Z,100600.60
2019-05-03T08:21:16.134Z,100594.89
2019-05-03T08:23:45.824Z,100601.58
2019-05-03T08:26:15.749Z,100602.16
2019-05-03T08:28:45.390Z,100605.53
2019-05-03T08:31:32.723Z,100597.34
2019-05-03T08:34:04.804Z,100600.20
2019-05-03T08:36:36.481Z,100604.92
2019-05-03T08:39:07.385Z,100600.64
2019-05-03T08:41:38.621Z,100603.53
2019-05-03T08:44:08.317Z,100602.25
2019-05-03T08:46:38.045Z,100607.16
2019-05-03T08:49:07.611Z,100609.12
2019-05-03T08:51:37.210Z,100611.89
2019-05-03T08:54:06.755Z,100622.97
2019-05-03T08:56:36.276Z,100619.33
2019-05-03T08:59:05.787Z,100622.05
2019-05-03T09:01:37.828Z,100634.56
2019-05-03T09:04:06.732Z,100633.42
2019-05-03T09:06:36.315Z,100639.89
2019-05-03T09:09:09.426Z,100641.70
2019-05-03T09:11:38.952Z,100633.00
2019-05-03T09:14:12.647Z,100639.84
2019-05-03T09:16:42.224Z,100634.64
2019-05-03T09:19:11.771Z,100635.30
2019-05-03T09:21:41.358Z,100632.97
2019-05-03T09:24:11.600Z,100635.95
2019-05-03T09:26:41.196Z,100629.70
2019-05-03T09:29:10.720Z,100622.39
2019-05-03T09:31:40.422Z,100622.28
2019-05-03T09:34:11.176Z,100618.65
2019-05-03T09:36:40.803Z,100617.84
2019-05-03T09:39:10.601Z,100602.38
2019-05-03T09:41:40.266Z,100604.89
2019-05-03T09:44:09.859Z,100614.47
2019-05-03T09:46:39.674Z,100609.85
2019-05-03T09:49:13.356Z,100609.05
2019-05-03T09:51:40.623Z,100615.17
2019-05-03T09:54:11.982Z,100617.64
2019-05-03T09:57:00.232Z,100636.94
2019-05-03T09:59:30.941Z,100633.27
2019-05-03T10:02:04.624Z,100644.91
2019-05-03T10:04:36.386Z,100645.66
2019-05-03T10:07:05.422Z,100639.17
2019-05-03T10:09:35.462Z,100645.06
2019-05-03T10:12:06.843Z,100648.37
2019-05-03T10:14:36.458Z,100656.23
2019-05-03T10:17:15.932Z,100672.81
2019-05-03T10:19:45.767Z,100666.46
2019-05-03T10:22:15.755Z,100669.54
2019-05-03T10:24:45.609Z,100655.70
2019-05-03T10:27:15.773Z,100650.52
2019-05-03T10:29:45.271Z,100651.33
2019-05-03T10:32:26.949Z,100643.45
2019-05-03T10:34:58.095Z,100640.23
2019-05-03T10:37:31.729Z,100637.20
2019-05-03T10:40:07.791Z,100619.42
2019-05-03T10:42:35.843Z,100623.18
2019-05-03T10:45:07.046Z,100623.53
2019-05-03T10:47:36.841Z,100619.98
2019-05-03T10:50:08.458Z,100616.20
2019-05-03T10:52:44.201Z,100611.97
2019-05-03T10:55:15.736Z,100606.23
2019-05-03T10:57:46.597Z,100600.92
2019-05-03T11:00:42.482Z,100605.70
2019-05-03T11:02:57.575Z,100581.91
2019-05-03T11:05:27.372Z,100591.02
2019-05-03T11:07:56.968Z,100588.77
2019-05-03T11:10:26.487Z,100583.81
2019-05-03T11:12:56.428Z,100587.25
2019-05-03T11:15:26.216Z,100603.19
2019-05-03T11:17:55.746Z,100603.39
2019-05-03T11:20:37.468Z,100609.36
2019-05-03T11:23:09.283Z,100605.93
2019-05-03T11:25:38.915Z,100602.66
2019-05-03T11:28:10.225Z,100599.54
2019-05-03T11:30:52.276Z,100604.60
2019-05-03T11:33:27.526Z,100604.92
2019-05-03T11:36:07.307Z,100601.81
2019-05-03T11:38:39.163Z,100600.01
2019-05-03T11:41:08.807Z,100595.04
2019-05-03T11:43:38.662Z,100593.14
2019-05-03T11:46:08.220Z,100589.83
2019-05-03T11:48:38.662Z,100591.64
2019-05-03T11:51:08.386Z,100591.78
2019-05-03T11:53:37.932Z,100592.53
2019-05-03T11:56:07.553Z,100579.58
2019-05-03T11:58:37.044Z,100583.47
2019-05-03T12:01:15.913Z,100581.91
2019-05-03T12:03:41.490Z,100580.15
2019-05-03T12:06:11.161Z,100576.20
2019-05-03T12:08:40.940Z,100570.50
2019-05-03T12:11:10.521Z,100576.83
2019-05-03T12:13:41.211Z,100576.08
2019-05-03T12:16:15.851Z,100579.36
2019-05-03T12:18:52.238Z,100576.35
2019-05-03T12:21:17.210Z,100586.39
2019-05-03T12:23:45.953Z,100578.71
2019-05-03T12:26:17.344Z,100589.77
2019-05-03T12:28:48.861Z,100577.67
2019-05-03T12:31:33.518Z,100574.10
2019-05-03T12:33:51.764Z,100577.29
2019-05-03T12:36:21.335Z,100581.02
2019-05-03T12:38:50.906Z,100579.26
2019-05-03T12:41:20.469Z,100585.47
2019-05-03T12:43:50.353Z,100601.14
2019-05-03T12:46:21.224Z,100584.18
2019-05-03T12:48:51.403Z,100599.77
2019-05-03T12:51:21.022Z,100593.57
2019-05-03T12:53:50.692Z,100591.70
2019-05-03T12:56:23.399Z,100588.51
2019-05-03T12:59:05.938Z,100594.30
2019-05-03T13:01:49.020Z,100591.82
2019-05-03T13:04:35.602Z,100590.27
2019-05-03T13:07:09.741Z,100589.31
2019-05-03T13:09:39.263Z,100580.75
2019-05-03T13:12:10.956Z,100566.10
2019-05-03T13:14:40.531Z,100561.48
2019-05-03T13:17:11.376Z,100564.94
2019-05-03T13:19:45.052Z,100552.63
2019-05-03T13:22:14.575Z,100556.21
2019-05-03T13:24:45.202Z,100548.00
2019-05-03T13:27:15.259Z,100545.91
2019-05-03T13:29:45.320Z,100542.41
2019-05-03T13:32:15.163Z,100537.36
2019-05-03T13:34:44.868Z,100538.78
2019-05-03T13:37:35.788Z,100533.31
2019-05-03T13:40:07.992Z,100526.97
2019-05-03T13:42:37.958Z,100520.70
2019-05-03T13:45:08.624Z,100526.64
2019-05-03T13:47:38.159Z,100527.89
2019-05-03T13:50:08.360Z,100532.52
2019-05-03T13:52:37.879Z,100533.73
2019-05-03T13:55:09.123Z,100537.11
2019-05-03T13:57:38.747Z,100536.69
2019-05-03T14:00:08.495Z,100532.91
2019-05-03T14:02:38.123Z,100534.58
2019-05-03T14:05:08.528Z,100524.30
2019-05-03T14:07:38.178Z,100522.71
2019-05-03T14:10:08.375Z,100518.66
2019-05-03T14:12:37.881Z,100518.72
2019-05-03T14:15:08.809Z,100516.37
2019-05-03T14:17:38.531Z,100507.13
2019-05-03T14:20:11.401Z,100504.30
2019-05-03T14:22:42.548Z,100503.41
2019-05-03T14:25:12.178Z,100493.74
2019-05-03T14:27:41.726Z,100497.36
2019-05-03T14:30:14.522Z,100495.64
2019-05-03T14:32:45.419Z,100496.92
2019-05-03T14:35:16.305Z,100498.42
2019-05-03T14:37:46.107Z,100502.33
2019-05-03T14:40:16.777Z,100492.03
2019-05-03T14:42:46.339Z,100496.31
2019-05-03T14:45:16.009Z,100498.52
2019-05-03T14:47:48.920Z,100492.53
2019-05-03T14:50:18.733Z,100492.61
2019-05-03T14:52:48.332Z,100493.41
2019-05-03T14:55:34.700Z,100494.46
2019-05-03T14:58:04.602Z,100490.73
2019-05-03T15:00:54.546Z,100490.25
2019-05-03T15:03:29.163Z,100483.58
2019-05-03T15:06:00.654Z,100484.94
2019-05-03T15:08:30.150Z,100488.80
2019-05-03T15:10:59.698Z,100485.14
2019-05-03T15:13:29.343Z,100493.70
2019-05-03T15:15:59.023Z,100484.63
2019-05-03T15:18:29.725Z,100483.25
2019-05-03T15:20:59.268Z,100485.47
2019-05-03T15:23:28.891Z,100481.11
2019-05-03T15:25:58.464Z,100489.38
2019-05-03T15:28:28.104Z,100488.05
2019-05-03T15:30:57.772Z,100485.58
2019-05-03T15:33:27.343Z,100473.58
2019-05-03T15:35:56.955Z,100485.89
2019-05-03T15:38:26.488Z,100483.44
2019-05-03T15:40:56.002Z,100470.20
2019-05-03T15:43:38.949Z,100471.91
2019-05-03T15:46:10.101Z,100478.50
2019-05-03T15:48:41.315Z,100464.58
2019-05-03T15:51:11.011Z,100468.55
2019-05-03T15:53:40.601Z,100472.59
2019-05-03T15:56:10.268Z,100470.59
2019-05-03T15:58:40.074Z,100472.40
2019-05-03T16:01:09.943Z,100470.13
2019-05-03T16:03:39.997Z,100473.95
2019-05-03T16:06:11.469Z,100465.53
2019-05-03T16:08:41.094Z,100476.10
2019-05-03T16:11:10.637Z,100469.22
2019-05-03T16:13:40.609Z,100468.84
2019-05-03T16:16:11.873Z,100463.41
2019-05-03T16:18:41.574Z,100458.59
2019-05-03T16:21:14.687Z,100459.88
2019-05-03T16:23:46.619Z,100460.92
2019-05-03T16:26:16.013Z,100468.00
2019-05-03T16:29:05.277Z,100462.77
2019-05-03T16:31:35.177Z,100456.05
2019-05-03T16:34:05.001Z,100462.88
2019-05-03T16:36:36.877Z,100461.40
2019-05-03T16:39:08.337Z,100463.34
2019-05-03T16:41:38.471Z,100459.71
2019-05-03T16:44:07.999Z,100460.16
2019-05-03T16:46:37.670Z,100469.22
2019-05-03T16:49:07.347Z,100464.75
2019-05-03T16:51:37.136Z,100466.23
2019-05-03T16:54:06.992Z,100464.09
2019-05-03T16:56:36.690Z,100463.45
2019-05-03T16:59:17.507Z,100455.91
2019-05-03T17:01:47.474Z,100446.16
2019-05-03T17:04:30.163Z,100450.67
2019-05-03T17:07:12.039Z,100444.91
2019-05-03T17:09:43.704Z,100448.89
2019-05-03T17:12:25.530Z,100436.66
2019-05-03T17:14:57.133Z,100437.41
2019-05-03T17:17:26.875Z,100438.77
2019-05-03T17:19:56.775Z,100439.32
2019-05-03T17:22:28.613Z,100434.57
2019-05-03T17:24:58.444Z,100440.08
2019-05-03T17:27:28.753Z,100434.09
2019-05-03T17:29:58.482Z,100444.85
2019-05-03T17:32:28.154Z,100435.09
2019-05-03T17:34:57.999Z,100434.21
2019-05-03T17:37:28.009Z,100439.09
2019-05-03T17:40:05.496Z,100429.84
2019-05-03T17:42:54.716Z,100430.69
2019-05-03T17:45:26.696Z,100431.53
2019-05-03T17:47:56.575Z,100426.48
2019-05-03T17:50:26.162Z,100424.59
2019-05-03T17:53:00.869Z,100422.28
2019-05-03T17:55:35.280Z,100421.94
2019-05-03T17:58:15.113Z,100420.19
2019-05-03T18:00:44.895Z,100418.98
2019-05-03T18:03:16.100Z,100417.66
2019-05-03T18:05:48.110Z,100419.70
2019-05-03T18:08:28.335Z,100422.09
2019-05-03T18:10:59.722Z,100422.86
2019-05-03T18:13:29.395Z,100419.13
2019-05-03T18:15:58.935Z,100415.30
2019-05-03T18:18:29.077Z,100417.16
2019-05-03T18:20:58.958Z,100421.78
2019-05-03T18:23:29.520Z,100422.38
2019-05-03T18:25:59.863Z,100420.84
2019-05-03T18:28:29.835Z,100419.28
2019-05-03T18:30:59.727Z,100413.65
2019-05-03T18:33:29.775Z,100415.36
2019-05-03T18:35:59.685Z,100418.46
2019-05-03T18:38:30.978Z,100418.45
2019-05-03T18:41:04.542Z,100424.67
2019-05-03T18:43:35.444Z,100423.45
2019-05-03T18:46:14.210Z,100431.32
2019-05-03T18:48:44.579Z,100425.88
2019-05-03T18:51:14.816Z,100426.09
2019-05-03T18:53:45.123Z,100431.61
2019-05-03T18:56:14.935Z,100426.23
2019-05-03T18:58:44.959Z,100420.30
2019-05-03T19:01:18.609Z,100431.20
2019-05-03T19:03:49.896Z,100428.67
2019-05-03T19:06:19.544Z,100432.05
2019-05-03T19:09:00.989Z,100434.30
2019-05-03T19:11:48.091Z,100435.25
2019-05-03T19:14:19.366Z,100431.48
2019-05-03T19:16:59.115Z,100449.11
2019-05-03T19:19:31.070Z,100442.92
2019-05-03T19:22:00.981Z,100450.40
2019-05-03T19:24:31.378Z,100448.69
2019-05-03T19:27:00.938Z,100455.95
2019-05-03T19:29:30.515Z,100448.15
2019-05-03T19:32:00.078Z,100451.75
2019-05-03T19:34:29.635Z,100455.80
2019-05-03T19:36:59.283Z,100447.17
2019-05-03T19:39:28.828Z,100456.15
2019-05-03T19:41:58.604Z,100449.55
2019-05-03T19:44:28.162Z,100450.04
2019-05-03T19:46:57.859Z,100445.16
2019-05-03T19:49:27.440Z,100447.19
2019-05-03T19:51:57.065Z,100441.78
2019-05-03T19:54:26.943Z,100445.77
2019-05-03T19:56:56.542Z,100447.96
2019-05-03T19:59:43.592Z,100449.86
2019-05-03T20:02:15.050Z,100449.22
2019-05-03T20:05:00.625Z,100451.59
2019-05-03T20:07:31.058Z,100448.03
2019-05-03T20:10:00.737Z,100444.47
2019-05-03T20:12:30.493Z,100442.45
2019-05-03T20:15:00.173Z,100444.11
2019-05-03T20:17:29.714Z,100439.16
2019-05-03T20:19:59.506Z,100443.02
2019-05-03T20:22:29.161Z,100445.38
2019-05-03T20:24:58.677Z,100434.20
2019-05-03T20:27:28.405Z,100435.25
2019-05-03T20:29:58.078Z,100433.55
2019-05-03T20:32:28.245Z,100442.71
2019-05-03T20:35:10.551Z,100455.89
2019-05-03T20:37:29.178Z,100456.88
2019-05-03T20:39:59.117Z,100456.48
2019-05-03T20:42:48.973Z,100449.64
2019-05-03T20:45:35.422Z,100434.98
2019-05-03T20:48:07.082Z,100433.37
2019-05-03T20:50:36.728Z,100438.75
2019-05-03T20:53:06.547Z,100441.67
2019-05-03T20:55:36.162Z,100440.02
2019-05-03T20:58:08.339Z,100438.55
2019-05-03T21:00:37.217Z,100440.17
2019-05-03T21:03:07.655Z,100448.02
2019-05-03T21:05:37.653Z,100453.47
2019-05-03T21:08:07.481Z,100441.02
2019-05-03T21:10:37.181Z,100435.55
2019-05-03T21:13:08.758Z,100439.39
2019-05-03T21:15:45.328Z,100450.22
2019-05-03T21:18:16.695Z,100442.05
2019-05-03T21:21:00.794Z,100438.30
2019-05-03T21:23:45.099Z,100435.28
2019-05-03T21:26:16.619Z,100431.69
2019-05-03T21:28:48.733Z,100430.55
2019-05-03T21:31:18.296Z,100433.37
2019-05-03T21:33:48.246Z,100433.20
2019-05-03T21:36:18.176Z,100433.11
2019-05-03T21:38:48.089Z,100433.91
2019-05-03T21:41:24.585Z,100434.80
2019-05-03T21:43:54.473Z,100428.58
2019-05-03T21:46:26.188Z,100433.22
2019-05-03T21:49:00.277Z,100435.94
2019-05-03T21:51:29.931Z,100432.64
2019-05-03T21:53:59.444Z,100438.25
2019-05-03T21:56:29.297Z,100434.50
2019-05-03T21:58:58.872Z,100445.20
2019-05-03T22:01:28.505Z,100442.52
2019-05-03T22:03:58.034Z,100435.95
2019-05-03T22:06:28.115Z,100443.36
2019-05-03T22:08:58.381Z,100432.11
2019-05-03T22:11:28.477Z,100432.52
2019-05-03T22:14:01.662Z,100419.15
2019-05-03T22:16:35.979Z,100424.52
2019-05-03T22:19:05.698Z,100418.78
2019-05-03T22:21:39.589Z,100417.37
2019-05-03T22:24:27.021Z,100412.23
2019-05-03T22:26:58.219Z,100405.58
2019-05-03T22:29:29.041Z,100413.63
2019-05-03T22:32:00.587Z,100414.61
2019-05-03T22:34:30.175Z,100408.91
2019-05-03T22:36:59.685Z,100406.48
2019-05-03T22:39:29.289Z,100406.22
2019-05-03T22:41:58.787Z,100403.98
2019-05-03T22:44:28.290Z,100400.71
2019-05-03T22:46:57.960Z,100400.67
2019-05-03T22:49:27.614Z,100407.66
2019-05-03T22:51:57.240Z,100404.59
2019-05-03T22:54:27.850Z,100403.37
2019-05-03T22:56:57.576Z,100403.94
2019-05-03T22:59:28.211Z,100404.67
2019-05-03T23:01:57.797Z,100401.63
2019-05-03T23:04:27.894Z,100392.02
2019-05-03T23:06:57.443Z,100393.97
2019-05-03T23:09:27.145Z,100394.05
2019-05-03T23:11:56.655Z,100388.80
2019-05-03T23:14:26.264Z,100393.97
2019-05-03T23:16:56.483Z,100386.00
2019-05-03T23:19:25.982Z,100390.05
2019-05-03T23:22:04.839Z,100387.36
2019-05-03T23:24:35.245Z,100383.06
2019-05-03T23:27:05.313Z,100379.62
2019-05-03T23:29:35.090Z,100379.72
2019-05-03T23:32:05.753Z,100364.08
2019-05-03T23:34:35.358Z,100373.05
2019-05-03T23:37:05.636Z,100371.26
2019-05-03T23:39:35.521Z,100367.00
2019-05-03T23:42:06.083Z,100366.80
2019-05-03T23:44:35.708Z,100361.69
2019-05-03T23:47:14.580Z,100365.02
2019-05-03T23:49:44.644Z,100358.59
2019-05-03T23:52:26.546Z,100354.99
2019-05-03T23:55:02.920Z,100349.70
2019-05-03T23:57:32.512Z,100350.21
